createdAt,value
2019-01-16T00:00:33.206Z,-0.31
2019-01-16T00:03:22.826Z,-0.38
2019-01-16T00:06:03.784Z,-0.47
2019-01-16T00:09:05.507Z,-0.45
2019-01-16T00:12:10.915Z,-0.42
2019-01-16T00:15:06.356Z,-0.41
2019-01-16T00:17:51.737Z,-0.39
2019-01-16T00:20:37.391Z,-0.39
2019-01-16T00:23:30.203Z,-0.35
2019-01-16T00:26:15.991Z,-0.33
2019-01-16T00:29:05.931Z,-0.32
2019-01-16T00:31:45.785Z,-0.43
2019-01-16T00:34:31.579Z,-0.47
2019-01-16T00:37:24.411Z,-0.55
2019-01-16T00:40:17.337Z,-0.62
2019-01-16T00:43:06.243Z,-0.45
2019-01-16T00:46:05.171Z,-0.57
2019-01-16T00:49:00.849Z,-0.65
2019-01-16T00:51:53.171Z,-0.62
2019-01-16T00:54:42.698Z,-0.57
2019-01-16T00:57:20.047Z,-0.51
2019-01-16T01:00:12.998Z,-0.47
2019-01-16T01:03:09.834Z,-0.47
2019-01-16T01:05:59.702Z,-0.56
2019-01-16T01:08:45.568Z,-0.57
2019-01-16T01:11:47.729Z,-0.67
2019-01-16T01:14:28.974Z,-0.75
2019-01-16T01:17:09.363Z,-0.82
2019-01-16T01:20:14.347Z,-0.84
2019-01-16T01:22:59.836Z,-0.85
2019-01-16T01:25:50.741Z,-0.85
2019-01-16T01:28:34.181Z,-0.81
2019-01-16T01:31:11.191Z,-0.62
2019-01-16T01:33:56.891Z,-0.57
2019-01-16T01:36:55.907Z,-0.46
2019-01-16T01:39:42.855Z,-0.59
2019-01-16T01:42:45.054Z,-0.71
2019-01-16T01:45:24.566Z,-0.87
2019-01-16T01:48:10.083Z,-1.00
2019-01-16T01:50:53.494Z,-1.10
2019-01-16T01:53:39.583Z,-1.08
2019-01-16T01:56:29.582Z,-0.75
2019-01-16T01:59:16.471Z,-0.81
2019-01-16T02:01:59.074Z,-0.76
2019-01-16T02:04:46.036Z,-0.80
2019-01-16T02:07:31.690Z,-1.00
2019-01-16T02:10:18.560Z,-0.99
2019-01-16T02:13:05.407Z,-0.94
2019-01-16T02:15:49.727Z,-0.97
2019-01-16T02:18:47.097Z,-1.05
2019-01-16T02:21:31.409Z,-1.11
2019-01-16T02:24:16.992Z,-1.22
2019-01-16T02:27:18.777Z,-1.21
2019-01-16T02:30:20.715Z,-1.35
2019-01-16T02:33:10.332Z,-1.24
2019-01-16T02:35:48.376Z,-1.24
2019-01-16T02:38:34.268Z,-1.33
2019-01-16T02:41:20.496Z,-1.29
2019-01-16T02:44:06.367Z,-1.22
2019-01-16T02:46:52.172Z,-1.26
2019-01-16T02:49:37.664Z,-1.27
2019-01-16T02:52:33.991Z,-1.39
2019-01-16T02:55:19.717Z,-1.49
2019-01-16T02:58:22.017Z,-1.53
2019-01-16T03:01:02.917Z,-1.47
2019-01-16T03:03:48.376Z,-1.46
2019-01-16T03:06:35.066Z,-1.53
2019-01-16T03:09:15.732Z,-1.55
2019-01-16T03:12:01.354Z,-1.50
2019-01-16T03:14:44.060Z,-1.52
2019-01-16T03:17:29.941Z,-1.58
2019-01-16T03:20:26.076Z,-1.63
2019-01-16T03:23:05.398Z,-1.75
2019-01-16T03:25:46.966Z,-1.71
2019-01-16T03:28:39.789Z,-1.68
2019-01-16T03:31:26.654Z,-1.68
2019-01-16T03:34:22.318Z,-1.66
2019-01-16T03:37:11.902Z,-1.71
2019-01-16T03:39:49.555Z,-1.81
2019-01-16T03:42:40.533Z,-1.84
2019-01-16T03:45:30.418Z,-1.89
2019-01-16T03:48:17.248Z,-1.92
2019-01-16T03:50:57.434Z,-1.98
2019-01-16T03:53:38.896Z,-2.11
2019-01-16T03:56:28.775Z,-2.10
2019-01-16T03:59:21.774Z,-2.14
2019-01-16T04:02:14.505Z,-2.17
2019-01-16T04:05:07.545Z,-2.20
2019-01-16T04:08:03.845Z,-2.23
2019-01-16T04:10:50.719Z,-2.18
2019-01-16T04:13:37.583Z,-2.15
2019-01-16T04:16:18.662Z,-2.21
2019-01-16T04:19:04.346Z,-2.10
2019-01-16T04:21:45.701Z,-2.09
2019-01-16T04:24:32.571Z,-2.16
2019-01-16T04:27:22.457Z,-2.19
2019-01-16T04:30:21.236Z,-2.24
2019-01-16T04:33:17.173Z,-2.27
2019-01-16T04:36:03.218Z,-2.28
2019-01-16T04:38:52.930Z,-2.21
2019-01-16T04:41:39.793Z,-2.10
2019-01-16T04:44:35.743Z,-2.14
2019-01-16T04:47:28.978Z,-2.16
2019-01-16T04:50:14.539Z,-2.26
2019-01-16T04:53:04.562Z,-2.32
2019-01-16T04:55:51.404Z,-2.36
2019-01-16T04:58:41.231Z,-2.36
2019-01-16T05:01:19.886Z,-2.38
2019-01-16T05:04:25.126Z,-2.33
2019-01-16T05:07:14.705Z,-2.30
2019-01-16T05:09:52.356Z,-2.33
2019-01-16T05:12:57.347Z,-2.44
2019-01-16T05:15:36.056Z,-2.36
2019-01-16T05:18:22.893Z,-2.34
2019-01-16T05:21:08.406Z,-2.39
2019-01-16T05:23:54.071Z,-2.31
2019-01-16T05:26:39.625Z,-2.31
2019-01-16T05:29:26.499Z,-2.40
2019-01-16T05:32:13.372Z,-2.41
2019-01-16T05:35:06.072Z,-2.36
2019-01-16T05:37:51.394Z,-2.36
2019-01-16T05:40:37.057Z,-2.40
2019-01-16T05:43:22.754Z,-2.30
2019-01-16T05:46:15.714Z,-2.33
2019-01-16T05:49:17.719Z,-2.36
2019-01-16T05:52:05.063Z,-2.44
2019-01-16T05:54:50.818Z,-2.50
2019-01-16T05:57:37.660Z,-2.54
2019-01-16T06:00:24.214Z,-2.55
2019-01-16T06:03:13.959Z,-2.51
2019-01-16T06:05:59.689Z,-2.51
2019-01-16T06:08:48.524Z,-2.51
2019-01-16T06:11:50.822Z,-2.52
2019-01-16T06:14:40.248Z,-2.42
2019-01-16T06:17:25.767Z,-2.50
2019-01-16T06:20:22.067Z,-2.55
2019-01-16T06:23:11.825Z,-2.53
2019-01-16T06:26:07.955Z,-2.61
2019-01-16T06:28:54.647Z,-2.57
2019-01-16T06:31:47.513Z,-2.53
2019-01-16T06:34:28.805Z,-2.59
2019-01-16T06:37:06.911Z,-2.70
2019-01-16T06:40:03.207Z,-2.86
2019-01-16T06:43:02.098Z,-2.76
2019-01-16T06:46:01.078Z,-2.75
2019-01-16T06:48:50.793Z,-2.91
2019-01-16T06:51:37.678Z,-2.92
2019-01-16T06:54:24.592Z,-2.97
2019-01-16T06:57:17.276Z,-3.02
2019-01-16T07:00:13.371Z,-3.05
2019-01-16T07:03:02.995Z,-3.10
2019-01-16T07:05:48.331Z,-3.08
2019-01-16T07:08:41.271Z,-3.09
2019-01-16T07:11:40.303Z,-3.10
2019-01-16T07:14:17.570Z,-3.13
2019-01-16T07:17:03.370Z,-3.18
2019-01-16T07:19:49.053Z,-3.14
2019-01-16T07:22:51.023Z,-3.18
2019-01-16T07:25:37.914Z,-3.12
2019-01-16T07:28:27.805Z,-3.12
2019-01-16T07:31:24.022Z,-3.10
2019-01-16T07:34:10.921Z,-3.00
2019-01-16T07:37:06.806Z,-2.95
2019-01-16T07:40:03.046Z,-2.96
2019-01-16T07:42:52.788Z,-2.85
2019-01-16T07:45:49.558Z,-2.86
2019-01-16T07:48:35.512Z,-2.74
2019-01-16T07:51:21.270Z,-2.74
2019-01-16T07:54:07.065Z,-2.61
2019-01-16T07:56:53.529Z,-2.40
2019-01-16T07:59:35.461Z,-2.14
2019-01-16T08:02:20.916Z,-1.92
2019-01-16T08:05:11.006Z,-1.74
2019-01-16T08:07:47.249Z,-1.82
2019-01-16T08:10:52.599Z,-1.79
2019-01-16T08:13:48.633Z,-1.44
2019-01-16T08:16:41.395Z,-0.96
2019-01-16T08:19:40.609Z,-0.41
2019-01-16T08:22:26.222Z,0.19
2019-01-16T08:25:00.675Z,0.81
2019-01-16T08:27:56.613Z,0.82
2019-01-16T08:30:52.433Z,1.20
2019-01-16T08:33:34.526Z,1.55
2019-01-16T08:36:21.385Z,1.71
2019-01-16T08:39:11.041Z,1.72
2019-01-16T08:41:56.674Z,1.49
2019-01-16T08:44:55.837Z,1.01
2019-01-16T08:47:42.682Z,0.54
2019-01-16T08:50:32.715Z,0.16
2019-01-16T08:53:16.186Z,0.03
2019-01-16T08:56:01.710Z,0.87
2019-01-16T08:58:57.967Z,3.13
2019-01-16T09:01:44.836Z,5.62
2019-01-16T09:04:30.689Z,7.43
2019-01-16T09:07:10.610Z,9.41
2019-01-16T09:10:01.732Z,10.26
2019-01-16T09:12:51.191Z,10.39
2019-01-16T09:15:36.687Z,9.51
2019-01-16T09:18:32.760Z,8.76
2019-01-16T09:21:28.717Z,7.41
2019-01-16T09:24:14.174Z,7.15
2019-01-16T09:26:57.450Z,6.60
2019-01-16T09:29:43.102Z,7.22
2019-01-16T09:32:36.031Z,9.29
2019-01-16T09:35:20.340Z,10.15
2019-01-16T09:38:22.671Z,11.76
2019-01-16T09:41:09.522Z,12.76
2019-01-16T09:44:08.525Z,13.49
2019-01-16T09:47:05.231Z,13.38
2019-01-16T09:49:58.286Z,13.11
2019-01-16T09:52:54.298Z,14.12
2019-01-16T09:55:53.410Z,16.15
2019-01-16T09:58:40.361Z,16.51
2019-01-16T10:01:25.947Z,15.57
2019-01-16T10:04:31.344Z,15.83
2019-01-16T10:07:33.328Z,14.36
2019-01-16T10:10:11.416Z,14.38
2019-01-16T10:13:16.395Z,15.05
2019-01-16T10:16:12.225Z,14.56
2019-01-16T10:19:01.699Z,14.21
2019-01-16T10:21:47.327Z,14.56
2019-01-16T10:24:34.271Z,14.43
2019-01-16T10:27:20.031Z,14.10
2019-01-16T10:30:09.963Z,14.88
2019-01-16T10:32:55.774Z,15.04
2019-01-16T10:35:41.366Z,15.12
2019-01-16T10:38:28.747Z,14.32
2019-01-16T10:41:30.902Z,13.52
2019-01-16T10:44:20.685Z,13.33
2019-01-16T10:47:06.323Z,14.32
2019-01-16T10:50:11.618Z,14.17
2019-01-16T10:52:52.577Z,14.79
2019-01-16T10:55:46.039Z,14.87
2019-01-16T10:58:32.162Z,14.35
2019-01-16T11:01:11.799Z,14.89
2019-01-16T11:03:57.609Z,12.67
2019-01-16T11:06:44.499Z,11.35
2019-01-16T11:09:43.650Z,10.84
2019-01-16T11:12:39.385Z,10.66
2019-01-16T11:15:45.026Z,9.98
2019-01-16T11:18:43.967Z,8.88
2019-01-16T11:21:29.618Z,7.96
2019-01-16T11:24:19.242Z,7.57
2019-01-16T11:27:05.057Z,7.48
2019-01-16T11:29:51.938Z,7.61
2019-01-16T11:32:38.786Z,7.76
2019-01-16T11:35:35.782Z,7.51
2019-01-16T11:38:25.416Z,7.42
2019-01-16T11:41:09.927Z,7.10
2019-01-16T11:43:57.082Z,6.86
2019-01-16T11:46:42.547Z,6.58
2019-01-16T11:49:27.798Z,6.09
2019-01-16T11:52:14.673Z,5.71
2019-01-16T11:55:07.346Z,5.51
2019-01-16T11:57:53.179Z,4.97
2019-01-16T12:00:46.214Z,4.83
2019-01-16T12:03:35.870Z,4.78
2019-01-16T12:06:22.978Z,4.85
2019-01-16T12:09:15.738Z,4.75
2019-01-16T12:12:01.783Z,4.83
2019-01-16T12:14:58.047Z,4.83
2019-01-16T12:17:57.044Z,5.06
2019-01-16T12:20:42.022Z,5.07
2019-01-16T12:23:15.810Z,5.09
2019-01-16T12:26:08.640Z,4.98
2019-01-16T12:28:52.115Z,5.07
2019-01-16T12:31:28.299Z,5.08
2019-01-16T12:34:15.185Z,5.03
2019-01-16T12:37:14.371Z,4.87
2019-01-16T12:39:54.575Z,4.79
2019-01-16T12:42:53.576Z,4.78
2019-01-16T12:45:39.031Z,4.73
2019-01-16T12:48:36.704Z,4.87
2019-01-16T12:51:16.734Z,4.76
2019-01-16T12:53:52.989Z,4.93
2019-01-16T12:56:42.898Z,4.86
2019-01-16T12:59:29.774Z,4.91
2019-01-16T13:02:15.619Z,4.89
2019-01-16T13:05:14.869Z,5.04
2019-01-16T13:08:04.639Z,4.87
2019-01-16T13:11:06.664Z,4.80
2019-01-16T13:14:02.412Z,4.82
2019-01-16T13:16:47.754Z,4.79
2019-01-16T13:19:43.806Z,4.68
2019-01-16T13:22:45.660Z,4.65
2019-01-16T13:25:37.902Z,4.64
2019-01-16T13:28:23.415Z,4.63
2019-01-16T13:31:02.303Z,4.67
2019-01-16T13:33:38.692Z,4.63
2019-01-16T13:36:29.352Z,4.61
2019-01-16T13:39:28.226Z,4.55
2019-01-16T13:42:23.854Z,4.48
2019-01-16T13:45:09.394Z,4.54
2019-01-16T13:47:47.309Z,4.64
2019-01-16T13:50:49.039Z,4.59
2019-01-16T13:53:35.966Z,4.63
2019-01-16T13:56:41.806Z,4.66
2019-01-16T13:59:31.635Z,4.59
2019-01-16T14:02:33.860Z,4.52
2019-01-16T14:05:18.659Z,4.38
2019-01-16T14:07:58.672Z,4.39
2019-01-16T14:10:45.797Z,4.38
2019-01-16T14:13:31.600Z,4.40
2019-01-16T14:16:17.077Z,4.32
2019-01-16T14:18:54.819Z,4.33
2019-01-16T14:21:33.929Z,4.26
2019-01-16T14:24:20.835Z,4.20
2019-01-16T14:27:19.972Z,4.18
2019-01-16T14:30:05.883Z,4.10
2019-01-16T14:32:51.648Z,4.06
2019-01-16T14:35:44.614Z,3.98
2019-01-16T14:38:49.831Z,4.01
2019-01-16T14:41:32.270Z,3.89
2019-01-16T14:44:22.096Z,3.92
2019-01-16T14:47:21.212Z,3.80
2019-01-16T14:50:08.075Z,3.72
2019-01-16T14:53:04.252Z,3.75
2019-01-16T14:55:53.918Z,3.80
2019-01-16T14:58:39.642Z,3.69
2019-01-16T15:01:32.570Z,3.71
2019-01-16T15:04:19.470Z,3.81
2019-01-16T15:07:04.922Z,3.70
2019-01-16T15:09:39.090Z,3.70
2019-01-16T15:12:20.261Z,3.65
2019-01-16T15:15:13.338Z,3.71
2019-01-16T15:18:09.442Z,3.78
2019-01-16T15:20:59.179Z,3.69
2019-01-16T15:23:49.098Z,3.80
2019-01-16T15:26:42.264Z,3.86
2019-01-16T15:29:31.973Z,3.89
2019-01-16T15:32:17.783Z,3.87
2019-01-16T15:34:57.086Z,3.80
2019-01-16T15:37:49.959Z,3.78
2019-01-16T15:40:26.881Z,3.77
2019-01-16T15:43:17.102Z,3.82
2019-01-16T15:46:06.927Z,3.90
2019-01-16T15:49:11.959Z,3.83
2019-01-16T15:51:58.850Z,3.77
2019-01-16T15:54:37.753Z,3.70
2019-01-16T15:57:24.036Z,3.65
2019-01-16T16:00:23.079Z,3.63
2019-01-16T16:03:22.196Z,3.61
2019-01-16T16:06:09.062Z,3.62
2019-01-16T16:09:14.342Z,3.49
2019-01-16T16:12:01.218Z,3.51
2019-01-16T16:14:51.273Z,3.53
2019-01-16T16:17:50.040Z,3.35
2019-01-16T16:20:54.277Z,3.33
2019-01-16T16:23:38.976Z,3.18
2019-01-16T16:26:31.707Z,3.17
2019-01-16T16:29:18.555Z,3.07
2019-01-16T16:32:04.182Z,2.98
2019-01-16T16:35:03.284Z,3.01
2019-01-16T16:37:54.458Z,2.87
2019-01-16T16:40:39.857Z,2.82
2019-01-16T16:43:25.661Z,2.86
2019-01-16T16:46:15.690Z,2.79
2019-01-16T16:49:02.824Z,2.69
2019-01-16T16:51:48.306Z,2.76
2019-01-16T16:54:35.102Z,2.68
2019-01-16T16:57:24.819Z,2.75
2019-01-16T17:00:10.282Z,2.76
2019-01-16T17:02:56.037Z,2.86
2019-01-16T17:05:49.086Z,2.90
2019-01-16T17:08:35.117Z,2.94
2019-01-16T17:11:25.026Z,2.99
2019-01-16T17:14:14.673Z,3.00
2019-01-16T17:17:00.097Z,3.04
2019-01-16T17:19:55.974Z,2.96
2019-01-16T17:22:42.446Z,2.90
2019-01-16T17:25:29.346Z,2.91
2019-01-16T17:28:22.279Z,2.80
2019-01-16T17:31:06.216Z,2.85
2019-01-16T17:34:08.190Z,2.89
2019-01-16T17:36:53.671Z,2.87
2019-01-16T17:39:39.311Z,2.82
2019-01-16T17:42:24.851Z,2.84
2019-01-16T17:45:10.586Z,2.89
2019-01-16T17:47:56.546Z,3.00
2019-01-16T17:51:01.933Z,2.99
2019-01-16T17:53:48.891Z,2.98
2019-01-16T17:56:35.766Z,2.96
2019-01-16T17:59:28.673Z,3.04
2019-01-16T18:02:14.339Z,3.00
2019-01-16T18:05:06.893Z,3.06
2019-01-16T18:07:43.667Z,3.08
2019-01-16T18:10:30.638Z,3.04
2019-01-16T18:13:17.537Z,3.06
2019-01-16T18:16:07.276Z,3.13
2019-01-16T18:18:54.131Z,3.24
2019-01-16T18:21:50.262Z,3.30
2019-01-16T18:24:45.087Z,3.26
2019-01-16T18:27:42.018Z,3.28
2019-01-16T18:30:38.987Z,3.33
2019-01-16T18:33:25.878Z,3.31
2019-01-16T18:36:21.645Z,3.31
2019-01-16T18:39:07.278Z,3.34
2019-01-16T18:41:51.126Z,3.31
2019-01-16T18:44:40.754Z,3.28
2019-01-16T18:47:26.505Z,3.21
2019-01-16T18:50:16.542Z,3.23
2019-01-16T18:53:09.435Z,3.26
2019-01-16T18:55:55.112Z,3.26
2019-01-16T18:58:32.511Z,3.27
2019-01-16T19:01:14.951Z,3.33
2019-01-16T19:03:48.256Z,3.36
2019-01-16T19:06:34.437Z,3.55
2019-01-16T19:09:33.670Z,3.51
2019-01-16T19:12:26.457Z,3.49
2019-01-16T19:15:28.404Z,3.48
2019-01-16T19:18:17.992Z,3.41
2019-01-16T19:21:07.914Z,3.45
2019-01-16T19:23:56.590Z,3.37
2019-01-16T19:26:42.099Z,3.41
2019-01-16T19:29:38.325Z,3.42
2019-01-16T19:32:23.749Z,3.29
2019-01-16T19:35:26.151Z,3.22
2019-01-16T19:38:13.061Z,3.22
2019-01-16T19:41:00.036Z,3.15
2019-01-16T19:43:53.118Z,3.18
2019-01-16T19:46:38.691Z,3.14
2019-01-16T19:49:24.506Z,3.12
2019-01-16T19:52:18.374Z,3.09
2019-01-16T19:55:04.035Z,3.03
2019-01-16T19:57:48.275Z,2.96
2019-01-16T20:00:48.353Z,2.88
2019-01-16T20:03:53.385Z,2.92
2019-01-16T20:06:52.401Z,2.90
2019-01-16T20:09:38.110Z,2.90
2019-01-16T20:12:23.557Z,2.88
2019-01-16T20:15:09.397Z,2.88
2019-01-16T20:17:56.378Z,2.84
2019-01-16T20:20:58.596Z,2.88
2019-01-16T20:24:00.378Z,2.88
2019-01-16T20:26:45.807Z,2.85
2019-01-16T20:29:31.362Z,2.64
2019-01-16T20:32:18.225Z,2.49
2019-01-16T20:35:00.832Z,2.44
2019-01-16T20:37:46.591Z,2.37
2019-01-16T20:40:36.240Z,2.43
2019-01-16T20:43:29.175Z,2.45
2019-01-16T20:46:11.487Z,2.52
2019-01-16T20:49:01.419Z,2.59
2019-01-16T20:51:52.683Z,2.56
2019-01-16T20:54:38.045Z,2.55
2019-01-16T20:57:30.957Z,2.42
2019-01-16T21:00:16.727Z,2.38
2019-01-16T21:03:18.835Z,2.28
2019-01-16T21:06:00.935Z,2.27
2019-01-16T21:08:40.474Z,2.30
2019-01-16T21:11:45.762Z,2.36
2019-01-16T21:14:41.412Z,2.30
2019-01-16T21:17:46.304Z,2.25
2019-01-16T21:20:32.559Z,2.23
2019-01-16T21:23:23.684Z,2.34
2019-01-16T21:26:06.930Z,2.37
2019-01-16T21:29:06.242Z,2.36
2019-01-16T21:31:43.162Z,2.33
2019-01-16T21:34:29.971Z,2.34
2019-01-16T21:37:34.987Z,2.36
2019-01-16T21:40:24.593Z,2.34
2019-01-16T21:43:03.306Z,2.29
2019-01-16T21:45:56.214Z,2.21
2019-01-16T21:48:39.819Z,2.19
2019-01-16T21:51:26.719Z,2.17
2019-01-16T21:54:04.755Z,2.11
2019-01-16T21:56:43.707Z,2.01
2019-01-16T21:59:31.902Z,1.85
2019-01-16T22:02:23.271Z,1.86
2019-01-16T22:05:08.879Z,1.84
2019-01-16T22:07:55.101Z,1.80
2019-01-16T22:10:44.989Z,1.86
2019-01-16T22:13:29.931Z,1.85
2019-01-16T22:16:05.406Z,1.91
2019-01-16T22:19:10.378Z,1.97
2019-01-16T22:21:45.583Z,1.99
2019-01-16T22:24:20.595Z,1.97
2019-01-16T22:27:10.414Z,1.99
2019-01-16T22:29:56.535Z,2.02
2019-01-16T22:32:35.271Z,1.97
2019-01-16T22:35:31.375Z,1.98
2019-01-16T22:38:17.309Z,2.05
2019-01-16T22:41:02.321Z,2.05
2019-01-16T22:43:46.885Z,2.09
2019-01-16T22:46:36.471Z,2.11
2019-01-16T22:49:29.330Z,2.15
2019-01-16T22:52:28.250Z,2.20
2019-01-16T22:55:33.358Z,2.19
2019-01-16T22:58:20.291Z,2.23
2019-01-16T23:01:16.771Z,2.20
2019-01-16T23:04:15.811Z,2.14
2019-01-16T23:06:59.683Z,2.14
2019-01-16T23:09:58.923Z,2.14
2019-01-16T23:12:57.751Z,2.25
2019-01-16T23:15:44.455Z,2.12
2019-01-16T23:18:29.957Z,2.18
2019-01-16T23:21:26.062Z,2.21
2019-01-16T23:24:16.139Z,2.23
2019-01-16T23:26:55.238Z,2.27
2019-01-16T23:29:42.137Z,2.31
2019-01-16T23:32:25.456Z,2.32
2019-01-16T23:35:12.350Z,2.37
2019-01-16T23:38:04.506Z,2.38
2019-01-16T23:40:50.269Z,2.35
2019-01-16T23:43:40.126Z,2.35
2019-01-16T23:46:36.010Z,2.40
2019-01-16T23:49:10.534Z,2.43
2019-01-16T23:51:43.827Z,2.39
2019-01-16T23:54:36.530Z,2.34
2019-01-16T23:57:26.486Z,2.38
